Mardan Weather



Mardan's Current Weather

Temprature 21o haze

haze

Rain: 0 %

Min Temprature21o
Max Temprature21o
Humidity73
Wind Speed4.1 m/h
Sun Rise05:33:56
Sun Set18:46:54
Current Time: 21-Apr-2019 05:59:44
Lat/Lon: 34.19, 72.05




Mardan's Geo Location



Mardan's Weather Forecast

Time Overall Temp Min Temp Max Temp Humidity Wind Speed Rain
21-Apr-2019 (Sun)
08:00:00 scattered clouds 25.360 23.769 25.360 33 1.89 m/h 0 %
11:00:00 few clouds 29.950 28.750 29.950 26 2.12 m/h 0 %
14:00:00 clear sky 31.650 30.850 31.650 24 2.81 m/h 0 %
17:00:00 clear sky 30.750 30.350 30.750 25 2.29 m/h 0 %
20:00:00 clear sky 24.050 24.050 24.050 33 1.3 m/h 0 %
23:00:00 clear sky 22.630 22.630 22.630 40 3.01 m/h 0 %
22-Apr-2019 (Mon)
02:00:00 clear sky 21.170 21.170 21.170 41 3.26 m/h 0 %
05:00:00 clear sky 20.134 20.134 20.134 34 3.06 m/h 0 %
08:00:00 clear sky 25.026 25.026 25.026 30 2.15 m/h 0 %
11:00:00 clear sky 30.920 30.920 30.920 19 1.72 m/h 0 %
14:00:00 clear sky 32.615 32.615 32.615 19 2.83 m/h 0 %
17:00:00 clear sky 32.131 32.131 32.131 21 2.12 m/h 0 %
20:00:00 clear sky 25.750 25.750 25.750 29 1.58 m/h 0 %
23:00:00 clear sky 23.796 23.796 23.796 34 3.22 m/h 0 %
23-Apr-2019 (Tue)
02:00:00 clear sky 22.177 22.177 22.177 30 3.63 m/h 0 %
05:00:00 scattered clouds 21.106 21.106 21.106 23 3.44 m/h 0 %
08:00:00 overcast clouds 25.067 25.067 25.067 27 3.06 m/h 0 %
11:00:00 overcast clouds 32.450 32.450 32.450 14 1.7 m/h 0 %
14:00:00 broken clouds 34.350 34.350 34.350 14 2.65 m/h 0 %
17:00:00 broken clouds 33.350 33.350 33.350 20 1.97 m/h 0 %
20:00:00 overcast clouds 28.128 28.128 28.128 22 2.36 m/h 0 %
23:00:00 overcast clouds 26.950 26.950 26.950 26 3.47 m/h 0 %
24-Apr-2019 (Wed)
02:00:00 overcast clouds 23.682 23.682 23.682 39 3.86 m/h 0 %
05:00:00 overcast clouds 22.524 22.524 22.524 41 3.34 m/h 0 %
08:00:00 overcast clouds 25.550 25.550 25.550 40 2.16 m/h 0 %
11:00:00 overcast clouds 31.409 31.409 31.409 25 0.66 m/h 0 %
14:00:00 overcast clouds 31.350 31.350 31.350 25 2.49 m/h 0 %
17:00:00 light rain 24.150 24.150 24.150 53 4.56 m/h 119 %
20:00:00 overcast clouds 21.355 21.355 21.355 61 2.97 m/h 0 %
23:00:00 overcast clouds 21.245 21.245 21.245 58 2.22 m/h 0 %
25-Apr-2019 (Thu)
02:00:00 overcast clouds 20.750 20.750 20.750 54 3.22 m/h 0 %
05:00:00 broken clouds 19.492 19.492 19.492 53 3 m/h 0 %
08:00:00 clear sky 24.920 24.920 24.920 41 2.26 m/h 0 %
11:00:00 clear sky 30.590 30.590 30.590 25 2.21 m/h 0 %
14:00:00 clear sky 32.750 32.750 32.750 19 3.88 m/h 0 %
17:00:00 clear sky 31.711 31.711 31.711 20 2.14 m/h 0 %
20:00:00 clear sky 25.625 25.625 25.625 29 3.2 m/h 0 %
23:00:00 clear sky 22.843 22.843 22.843 32 4.27 m/h 0 %
26-Apr-2019 (Fri)
02:00:00 clear sky 20.732 20.732 20.732 37 4.45 m/h 0 %
05:00:00 clear sky 19.116 19.116 19.116 39 3.6 m/h 0 %

Famous Cities (60)